sensor_id;sensor_type;location;lat;lon;timestamp;P1;durP1;ratioP1;P2;durP2;ratioP2
48014;SDS011;33780;51.034;7.120;2023-02-23T00:01:35;17.88;;;9.18;;
48014;SDS011;33780;51.034;7.120;2023-02-23T00:04:01;20.50;;;9.02;;
48014;SDS011;33780;51.034;7.120;2023-02-23T00:06:27;18.15;;;9.63;;
48014;SDS011;33780;51.034;7.120;2023-02-23T00:08:53;21.60;;;10.00;;
48014;SDS011;33780;51.034;7.120;2023-02-23T00:11:19;17.27;;;9.32;;
48014;SDS011;33780;51.034;7.120;2023-02-23T00:13:46;21.42;;;10.73;;
48014;SDS011;33780;51.034;7.120;2023-02-23T00:16:18;21.02;;;10.82;;
48014;SDS011;33780;51.034;7.120;2023-02-23T00:18:46;21.35;;;9.32;;
48014;SDS011;33780;51.034;7.120;2023-02-23T00:21:18;18.55;;;9.57;;
48014;SDS011;33780;51.034;7.120;2023-02-23T00:23:48;16.85;;;8.88;;
48014;SDS011;33780;51.034;7.120;2023-02-23T00:26:18;16.02;;;8.40;;
48014;SDS011;33780;51.034;7.120;2023-02-23T00:28:45;16.65;;;8.60;;
48014;SDS011;33780;51.034;7.120;2023-02-23T00:31:11;16.77;;;8.85;;
48014;SDS011;33780;51.034;7.120;2023-02-23T00:33:36;17.90;;;9.43;;
48014;SDS011;33780;51.034;7.120;2023-02-23T00:36:03;17.08;;;9.30;;
48014;SDS011;33780;51.034;7.120;2023-02-23T00:38:29;18.92;;;9.40;;
48014;SDS011;33780;51.034;7.120;2023-02-23T00:41:03;15.70;;;8.38;;
48014;SDS011;33780;51.034;7.120;2023-02-23T00:43:40;17.50;;;9.48;;
48014;SDS011;33780;51.034;7.120;2023-02-23T00:46:15;17.40;;;8.60;;
48014;SDS011;33780;51.034;7.120;2023-02-23T00:48:42;20.20;;;9.32;;
48014;SDS011;33780;51.034;7.120;2023-02-23T00:51:09;19.48;;;9.20;;
48014;SDS011;33780;51.034;7.120;2023-02-23T00:53:35;18.15;;;8.98;;
48014;SDS011;33780;51.034;7.120;2023-02-23T00:56:02;19.55;;;9.38;;
48014;SDS011;33780;51.034;7.120;2023-02-23T00:58:29;19.58;;;9.85;;
48014;SDS011;33780;51.034;7.120;2023-02-23T01:00:55;17.70;;;8.70;;
48014;SDS011;33780;51.034;7.120;2023-02-23T01:03:23;20.60;;;9.77;;
48014;SDS011;33780;51.034;7.120;2023-02-23T01:05:52;18.75;;;9.00;;
48014;SDS011;33780;51.034;7.120;2023-02-23T01:08:19;19.05;;;9.55;;
48014;SDS011;33780;51.034;7.120;2023-02-23T01:10:46;16.83;;;8.70;;
48014;SDS011;33780;51.034;7.120;2023-02-23T01:13:17;17.10;;;8.63;;
48014;SDS011;33780;51.034;7.120;2023-02-23T01:15:46;20.38;;;9.15;;
48014;SDS011;33780;51.034;7.120;2023-02-23T01:18:12;17.70;;;9.10;;
48014;SDS011;33780;51.034;7.120;2023-02-23T01:20:38;16.65;;;9.00;;
48014;SDS011;33780;51.034;7.120;2023-02-23T01:23:05;20.75;;;9.57;;
48014;SDS011;33780;51.034;7.120;2023-02-23T01:25:32;18.65;;;8.27;;
48014;SDS011;33780;51.034;7.120;2023-02-23T01:27:58;20.35;;;10.25;;
48014;SDS011;33780;51.034;7.120;2023-02-23T01:30:24;17.13;;;8.60;;
48014;SDS011;33780;51.034;7.120;2023-02-23T01:32:49;18.25;;;9.43;;
48014;SDS011;33780;51.034;7.120;2023-02-23T01:35:16;18.75;;;9.35;;
48014;SDS011;33780;51.034;7.120;2023-02-23T01:37:41;19.73;;;8.32;;
48014;SDS011;33780;51.034;7.120;2023-02-23T01:40:09;19.02;;;9.20;;
48014;SDS011;33780;51.034;7.120;2023-02-23T01:42:39;15.00;;;7.53;;
48014;SDS011;33780;51.034;7.120;2023-02-23T01:45:18;16.20;;;8.02;;
48014;SDS011;33780;51.034;7.120;2023-02-23T01:47:47;18.35;;;8.68;;
48014;SDS011;33780;51.034;7.120;2023-02-23T01:50:15;18.80;;;9.43;;
48014;SDS011;33780;51.034;7.120;2023-02-23T01:52:42;17.38;;;8.70;;
48014;SDS011;33780;51.034;7.120;2023-02-23T01:55:08;18.67;;;8.90;;
48014;SDS011;33780;51.034;7.120;2023-02-23T01:57:38;19.25;;;8.50;;
48014;SDS011;33780;51.034;7.120;2023-02-23T02:00:05;19.35;;;8.95;;
48014;SDS011;33780;51.034;7.120;2023-02-23T02:02:37;19.35;;;8.95;;
48014;SDS011;33780;51.034;7.120;2023-02-23T02:05:03;17.50;;;8.85;;
48014;SDS011;33780;51.034;7.120;2023-02-23T02:07:32;17.20;;;8.52;;
48014;SDS011;33780;51.034;7.120;2023-02-23T02:09:59;18.52;;;8.77;;
48014;SDS011;33780;51.034;7.120;2023-02-23T02:12:37;20.17;;;9.35;;
48014;SDS011;33780;51.034;7.120;2023-02-23T02:15:03;19.27;;;9.57;;
48014;SDS011;33780;51.034;7.120;2023-02-23T02:22:54;17.73;;;9.13;;
48014;SDS011;33780;51.034;7.120;2023-02-23T02:42:24;15.00;;;7.32;;
48014;SDS011;33780;51.034;7.120;2023-02-23T02:45:08;15.85;;;7.85;;
48014;SDS011;33780;51.034;7.120;2023-02-23T02:47:44;15.65;;;7.57;;
48014;SDS011;33780;51.034;7.120;2023-02-23T02:50:15;16.52;;;8.23;;
48014;SDS011;33780;51.034;7.120;2023-02-23T02:53:00;16.35;;;8.05;;
48014;SDS011;33780;51.034;7.120;2023-02-23T02:55:30;19.23;;;8.35;;
48014;SDS011;33780;51.034;7.120;2023-02-23T02:57:59;21.42;;;9.48;;
48014;SDS011;33780;51.034;7.120;2023-02-23T03:00:36;19.67;;;9.45;;
48014;SDS011;33780;51.034;7.120;2023-02-23T03:03:26;21.08;;;9.50;;
48014;SDS011;33780;51.034;7.120;2023-02-23T03:06:24;17.73;;;8.55;;
48014;SDS011;33780;51.034;7.120;2023-02-23T03:12:16;20.40;;;8.52;;
48014;SDS011;33780;51.034;7.120;2023-02-23T03:17:47;18.58;;;8.52;;
48014;SDS011;33780;51.034;7.120;2023-02-23T03:20:48;19.95;;;9.38;;
48014;SDS011;33780;51.034;7.120;2023-02-23T03:23:44;22.80;;;9.95;;
48014;SDS011;33780;51.034;7.120;2023-02-23T03:29:38;17.80;;;8.70;;
48014;SDS011;33780;51.034;7.120;2023-02-23T03:35:32;22.00;;;10.27;;
48014;SDS011;33780;51.034;7.120;2023-02-23T03:38:31;18.75;;;8.93;;
48014;SDS011;33780;51.034;7.120;2023-02-23T03:41:20;23.70;;;11.15;;
48014;SDS011;33780;51.034;7.120;2023-02-23T03:44:08;20.65;;;10.00;;
48014;SDS011;33780;51.034;7.120;2023-02-23T03:46:57;20.95;;;10.10;;
48014;SDS011;33780;51.034;7.120;2023-02-23T03:49:44;20.73;;;10.68;;
48014;SDS011;33780;51.034;7.120;2023-02-23T03:52:33;19.70;;;10.00;;
48014;SDS011;33780;51.034;7.120;2023-02-23T03:55:23;18.05;;;8.85;;
48014;SDS011;33780;51.034;7.120;2023-02-23T03:58:13;17.65;;;8.95;;
48014;SDS011;33780;51.034;7.120;2023-02-23T04:01:03;17.38;;;8.52;;
48014;SDS011;33780;51.034;7.120;2023-02-23T04:03:50;17.13;;;8.82;;
48014;SDS011;33780;51.034;7.120;2023-02-23T04:06:39;15.93;;;8.23;;
48014;SDS011;33780;51.034;7.120;2023-02-23T04:09:25;16.35;;;8.30;;
48014;SDS011;33780;51.034;7.120;2023-02-23T04:15:19;16.25;;;8.88;;
48014;SDS011;33780;51.034;7.120;2023-02-23T04:17:50;16.48;;;8.55;;
48014;SDS011;33780;51.034;7.120;2023-02-23T04:20:17;18.33;;;8.60;;
48014;SDS011;33780;51.034;7.120;2023-02-23T04:22:42;15.68;;;7.10;;
48014;SDS011;33780;51.034;7.120;2023-02-23T04:25:08;19.10;;;8.88;;
48014;SDS011;33780;51.034;7.120;2023-02-23T04:27:34;18.05;;;8.68;;
48014;SDS011;33780;51.034;7.120;2023-02-23T04:30:00;18.48;;;8.63;;
48014;SDS011;33780;51.034;7.120;2023-02-23T04:32:27;15.80;;;8.15;;
48014;SDS011;33780;51.034;7.120;2023-02-23T04:34:53;17.52;;;8.65;;
48014;SDS011;33780;51.034;7.120;2023-02-23T04:37:18;16.65;;;8.15;;
48014;SDS011;33780;51.034;7.120;2023-02-23T04:39:44;20.30;;;9.85;;
48014;SDS011;33780;51.034;7.120;2023-02-23T04:42:13;19.58;;;9.82;;
48014;SDS011;33780;51.034;7.120;2023-02-23T04:44:39;21.85;;;9.88;;
48014;SDS011;33780;51.034;7.120;2023-02-23T04:47:04;25.67;;;11.55;;
48014;SDS011;33780;51.034;7.120;2023-02-23T04:49:30;22.38;;;11.15;;
48014;SDS011;33780;51.034;7.120;2023-02-23T04:51:55;19.42;;;9.95;;
48014;SDS011;33780;51.034;7.120;2023-02-23T04:54:20;18.75;;;9.45;;
48014;SDS011;33780;51.034;7.120;2023-02-23T04:56:45;19.58;;;9.55;;
48014;SDS011;33780;51.034;7.120;2023-02-23T04:59:11;21.33;;;10.00;;
48014;SDS011;33780;51.034;7.120;2023-02-23T05:01:37;17.13;;;9.32;;
48014;SDS011;33780;51.034;7.120;2023-02-23T05:04:02;19.20;;;9.40;;
48014;SDS011;33780;51.034;7.120;2023-02-23T05:06:28;20.48;;;9.85;;
48014;SDS011;33780;51.034;7.120;2023-02-23T05:08:54;20.95;;;9.70;;
48014;SDS011;33780;51.034;7.120;2023-02-23T05:11:19;18.20;;;9.48;;
48014;SDS011;33780;51.034;7.120;2023-02-23T05:13:45;19.60;;;10.15;;
48014;SDS011;33780;51.034;7.120;2023-02-23T05:16:10;17.75;;;9.40;;
48014;SDS011;33780;51.034;7.120;2023-02-23T05:18:35;18.27;;;9.50;;
48014;SDS011;33780;51.034;7.120;2023-02-23T05:21:01;17.92;;;9.80;;
48014;SDS011;33780;51.034;7.120;2023-02-23T05:23:34;18.83;;;10.50;;
48014;SDS011;33780;51.034;7.120;2023-02-23T05:26:04;16.50;;;8.88;;
48014;SDS011;33780;51.034;7.120;2023-02-23T05:28:31;17.92;;;9.18;;
48014;SDS011;33780;51.034;7.120;2023-02-23T05:30:58;19.98;;;9.23;;
48014;SDS011;33780;51.034;7.120;2023-02-23T05:33:24;18.77;;;9.90;;
48014;SDS011;33780;51.034;7.120;2023-02-23T05:35:49;17.48;;;9.63;;
48014;SDS011;33780;51.034;7.120;2023-02-23T05:38:14;18.45;;;9.57;;
48014;SDS011;33780;51.034;7.120;2023-02-23T05:40:40;17.98;;;9.23;;
48014;SDS011;33780;51.034;7.120;2023-02-23T05:43:05;16.50;;;8.82;;
48014;SDS011;33780;51.034;7.120;2023-02-23T05:45:31;17.40;;;9.15;;
48014;SDS011;33780;51.034;7.120;2023-02-23T05:47:57;18.00;;;9.13;;
48014;SDS011;33780;51.034;7.120;2023-02-23T05:50:22;16.85;;;9.05;;
48014;SDS011;33780;51.034;7.120;2023-02-23T05:52:48;17.63;;;9.68;;
48014;SDS011;33780;51.034;7.120;2023-02-23T05:55:13;17.63;;;9.45;;
48014;SDS011;33780;51.034;7.120;2023-02-23T05:57:39;19.05;;;9.95;;
48014;SDS011;33780;51.034;7.120;2023-02-23T06:00:05;17.92;;;9.50;;
48014;SDS011;33780;51.034;7.120;2023-02-23T06:02:31;19.27;;;10.50;;
48014;SDS011;33780;51.034;7.120;2023-02-23T06:04:59;17.42;;;9.18;;
48014;SDS011;33780;51.034;7.120;2023-02-23T06:07:25;17.75;;;9.70;;
48014;SDS011;33780;51.034;7.120;2023-02-23T06:09:50;20.13;;;10.73;;
48014;SDS011;33780;51.034;7.120;2023-02-23T06:12:15;18.38;;;9.98;;
48014;SDS011;33780;51.034;7.120;2023-02-23T06:14:45;22.40;;;10.63;;
48014;SDS011;33780;51.034;7.120;2023-02-23T06:17:11;20.23;;;10.95;;
48014;SDS011;33780;51.034;7.120;2023-02-23T06:19:36;20.85;;;10.48;;
48014;SDS011;33780;51.034;7.120;2023-02-23T06:22:02;24.38;;;11.45;;
48014;SDS011;33780;51.034;7.120;2023-02-23T06:24:36;21.67;;;11.50;;
48014;SDS011;33780;51.034;7.120;2023-02-23T06:27:04;25.50;;;11.82;;
48014;SDS011;33780;51.034;7.120;2023-02-23T06:29:29;21.55;;;11.20;;
48014;SDS011;33780;51.034;7.120;2023-02-23T06:31:58;23.33;;;11.75;;
48014;SDS011;33780;51.034;7.120;2023-02-23T06:34:29;23.50;;;11.35;;
48014;SDS011;33780;51.034;7.120;2023-02-23T06:36:57;20.75;;;11.13;;
48014;SDS011;33780;51.034;7.120;2023-02-23T06:39:23;24.60;;;12.07;;
48014;SDS011;33780;51.034;7.120;2023-02-23T06:41:48;23.67;;;11.27;;
48014;SDS011;33780;51.034;7.120;2023-02-23T06:44:14;22.88;;;11.80;;
48014;SDS011;33780;51.034;7.120;2023-02-23T06:46:39;22.55;;;10.85;;
48014;SDS011;33780;51.034;7.120;2023-02-23T06:49:04;24.55;;;11.82;;
48014;SDS011;33780;51.034;7.120;2023-02-23T06:51:30;26.13;;;12.35;;
48014;SDS011;33780;51.034;7.120;2023-02-23T06:53:56;25.42;;;12.23;;
48014;SDS011;33780;51.034;7.120;2023-02-23T06:56:21;23.35;;;11.95;;
48014;SDS011;33780;51.034;7.120;2023-02-23T06:58:46;25.05;;;11.43;;
48014;SDS011;33780;51.034;7.120;2023-02-23T07:01:12;28.33;;;12.90;;
48014;SDS011;33780;51.034;7.120;2023-02-23T07:03:39;28.92;;;12.32;;
48014;SDS011;33780;51.034;7.120;2023-02-23T07:06:05;27.95;;;12.57;;
48014;SDS011;33780;51.034;7.120;2023-02-23T07:08:31;29.20;;;13.65;;
48014;SDS011;33780;51.034;7.120;2023-02-23T07:11:15;29.30;;;12.55;;
48014;SDS011;33780;51.034;7.120;2023-02-23T07:13:43;29.98;;;13.63;;
48014;SDS011;33780;51.034;7.120;2023-02-23T07:16:09;31.33;;;12.23;;
48014;SDS011;33780;51.034;7.120;2023-02-23T07:18:35;25.50;;;11.95;;
48014;SDS011;33780;51.034;7.120;2023-02-23T07:21:00;27.92;;;13.70;;
48014;SDS011;33780;51.034;7.120;2023-02-23T07:23:25;33.08;;;13.90;;
48014;SDS011;33780;51.034;7.120;2023-02-23T07:25:53;30.52;;;14.30;;
48014;SDS011;33780;51.034;7.120;2023-02-23T07:28:22;28.52;;;14.02;;
48014;SDS011;33780;51.034;7.120;2023-02-23T07:30:48;29.30;;;13.90;;
48014;SDS011;33780;51.034;7.120;2023-02-23T07:33:14;29.13;;;13.73;;
48014;SDS011;33780;51.034;7.120;2023-02-23T07:35:39;32.80;;;14.32;;
48014;SDS011;33780;51.034;7.120;2023-02-23T07:38:06;31.42;;;13.90;;
48014;SDS011;33780;51.034;7.120;2023-02-23T07:40:31;30.33;;;14.15;;
48014;SDS011;33780;51.034;7.120;2023-02-23T07:42:57;36.10;;;14.90;;
48014;SDS011;33780;51.034;7.120;2023-02-23T07:45:22;37.08;;;15.02;;
48014;SDS011;33780;51.034;7.120;2023-02-23T07:47:49;35.85;;;16.00;;
48014;SDS011;33780;51.034;7.120;2023-02-23T07:50:14;34.22;;;14.35;;
48014;SDS011;33780;51.034;7.120;2023-02-23T07:52:40;32.17;;;15.00;;
48014;SDS011;33780;51.034;7.120;2023-02-23T07:55:07;34.08;;;15.85;;
48014;SDS011;33780;51.034;7.120;2023-02-23T07:57:33;40.75;;;15.65;;
48014;SDS011;33780;51.034;7.120;2023-02-23T07:59:59;38.90;;;16.00;;
48014;SDS011;33780;51.034;7.120;2023-02-23T08:02:26;35.97;;;15.80;;
48014;SDS011;33780;51.034;7.120;2023-02-23T08:04:53;39.10;;;16.60;;
48014;SDS011;33780;51.034;7.120;2023-02-23T08:07:18;40.83;;;16.38;;
48014;SDS011;33780;51.034;7.120;2023-02-23T08:09:44;36.22;;;15.90;;
48014;SDS011;33780;51.034;7.120;2023-02-23T08:12:10;34.40;;;15.90;;
48014;SDS011;33780;51.034;7.120;2023-02-23T08:14:41;37.55;;;16.08;;
48014;SDS011;33780;51.034;7.120;2023-02-23T08:17:06;39.45;;;16.73;;
48014;SDS011;33780;51.034;7.120;2023-02-23T08:19:32;37.53;;;17.05;;
48014;SDS011;33780;51.034;7.120;2023-02-23T08:21:58;34.80;;;15.65;;
48014;SDS011;33780;51.034;7.120;2023-02-23T08:24:24;36.92;;;15.45;;
48014;SDS011;33780;51.034;7.120;2023-02-23T08:26:53;32.28;;;15.43;;
48014;SDS011;33780;51.034;7.120;2023-02-23T08:29:29;34.08;;;14.35;;
48014;SDS011;33780;51.034;7.120;2023-02-23T08:31:55;31.92;;;13.95;;
48014;SDS011;33780;51.034;7.120;2023-02-23T08:34:23;27.80;;;13.05;;
48014;SDS011;33780;51.034;7.120;2023-02-23T08:36:52;26.23;;;11.52;;
48014;SDS011;33780;51.034;7.120;2023-02-23T08:39:18;26.98;;;12.65;;
48014;SDS011;33780;51.034;7.120;2023-02-23T08:41:46;28.38;;;12.38;;
48014;SDS011;33780;51.034;7.120;2023-02-23T08:44:14;25.17;;;12.10;;
48014;SDS011;33780;51.034;7.120;2023-02-23T08:46:42;24.08;;;10.93;;
48014;SDS011;33780;51.034;7.120;2023-02-23T08:49:12;22.63;;;11.57;;
48014;SDS011;33780;51.034;7.120;2023-02-23T08:51:40;24.88;;;11.70;;
48014;SDS011;33780;51.034;7.120;2023-02-23T08:54:14;22.90;;;10.45;;
48014;SDS011;33780;51.034;7.120;2023-02-23T08:56:40;24.67;;;11.85;;
48014;SDS011;33780;51.034;7.120;2023-02-23T08:59:06;26.35;;;11.82;;
48014;SDS011;33780;51.034;7.120;2023-02-23T09:01:35;25.30;;;11.43;;
48014;SDS011;33780;51.034;7.120;2023-02-23T09:04:01;26.73;;;11.40;;
48014;SDS011;33780;51.034;7.120;2023-02-23T09:06:27;28.98;;;12.30;;
48014;SDS011;33780;51.034;7.120;2023-02-23T09:08:53;26.33;;;11.85;;
48014;SDS011;33780;51.034;7.120;2023-02-23T09:11:19;29.95;;;12.63;;
48014;SDS011;33780;51.034;7.120;2023-02-23T09:13:53;25.25;;;11.98;;
48014;SDS011;33780;51.034;7.120;2023-02-23T09:16:19;24.30;;;10.85;;
48014;SDS011;33780;51.034;7.120;2023-02-23T09:18:44;28.08;;;11.90;;
48014;SDS011;33780;51.034;7.120;2023-02-23T09:21:14;24.38;;;11.85;;
48014;SDS011;33780;51.034;7.120;2023-02-23T09:23:46;24.92;;;11.35;;
48014;SDS011;33780;51.034;7.120;2023-02-23T09:26:13;25.98;;;11.80;;
48014;SDS011;33780;51.034;7.120;2023-02-23T09:28:39;27.80;;;11.80;;
48014;SDS011;33780;51.034;7.120;2023-02-23T09:31:08;23.45;;;10.93;;
48014;SDS011;33780;51.034;7.120;2023-02-23T09:33:35;24.58;;;11.82;;
48014;SDS011;33780;51.034;7.120;2023-02-23T09:36:21;28.15;;;11.70;;
48014;SDS011;33780;51.034;7.120;2023-02-23T09:38:57;23.13;;;10.50;;
48014;SDS011;33780;51.034;7.120;2023-02-23T09:51:02;22.42;;;10.23;;
48014;SDS011;33780;51.034;7.120;2023-02-23T10:04:39;23.33;;;11.07;;
48014;SDS011;33780;51.034;7.120;2023-02-23T10:10:20;20.80;;;9.75;;
48014;SDS011;33780;51.034;7.120;2023-02-23T10:23:39;20.70;;;10.68;;
48014;SDS011;33780;51.034;7.120;2023-02-23T10:40:39;22.30;;;9.98;;
48014;SDS011;33780;51.034;7.120;2023-02-23T10:47:17;17.98;;;9.68;;
48014;SDS011;33780;51.034;7.120;2023-02-23T10:50:24;28.58;;;10.85;;
48014;SDS011;33780;51.034;7.120;2023-02-23T10:53:02;22.20;;;10.68;;
48014;SDS011;33780;51.034;7.120;2023-02-23T10:55:35;22.13;;;10.63;;
48014;SDS011;33780;51.034;7.120;2023-02-23T10:58:07;22.83;;;10.57;;
48014;SDS011;33780;51.034;7.120;2023-02-23T11:00:41;22.15;;;10.98;;
48014;SDS011;33780;51.034;7.120;2023-02-23T11:03:26;26.20;;;11.38;;
48014;SDS011;33780;51.034;7.120;2023-02-23T11:06:33;23.00;;;11.18;;
48014;SDS011;33780;51.034;7.120;2023-02-23T11:11:56;23.33;;;10.93;;
48014;SDS011;33780;51.034;7.120;2023-02-23T11:14:23;25.10;;;10.88;;
48014;SDS011;33780;51.034;7.120;2023-02-23T11:16:51;25.00;;;11.43;;
48014;SDS011;33780;51.034;7.120;2023-02-23T11:19:38;24.63;;;11.88;;
48014;SDS011;33780;51.034;7.120;2023-02-23T11:22:05;23.98;;;10.82;;
48014;SDS011;33780;51.034;7.120;2023-02-23T11:24:32;23.95;;;10.88;;
48014;SDS011;33780;51.034;7.120;2023-02-23T11:27:01;21.45;;;10.30;;
48014;SDS011;33780;51.034;7.120;2023-02-23T11:29:34;20.88;;;10.65;;
48014;SDS011;33780;51.034;7.120;2023-02-23T11:32:05;25.40;;;10.55;;
48014;SDS011;33780;51.034;7.120;2023-02-23T11:34:33;22.95;;;10.63;;
48014;SDS011;33780;51.034;7.120;2023-02-23T11:42:20;21.88;;;10.38;;
48014;SDS011;33780;51.034;7.120;2023-02-23T11:45:02;26.48;;;11.77;;
48014;SDS011;33780;51.034;7.120;2023-02-23T11:47:29;28.75;;;11.57;;
48014;SDS011;33780;51.034;7.120;2023-02-23T11:49:57;24.77;;;10.43;;
48014;SDS011;33780;51.034;7.120;2023-02-23T11:52:23;26.85;;;11.38;;
48014;SDS011;33780;51.034;7.120;2023-02-23T11:54:54;27.88;;;11.93;;
48014;SDS011;33780;51.034;7.120;2023-02-23T11:57:27;25.33;;;11.80;;
48014;SDS011;33780;51.034;7.120;2023-02-23T11:59:55;27.45;;;11.20;;
48014;SDS011;33780;51.034;7.120;2023-02-23T12:05:03;31.80;;;12.25;;
48014;SDS011;33780;51.034;7.120;2023-02-23T12:15:21;28.42;;;11.00;;
48014;SDS011;33780;51.034;7.120;2023-02-23T12:17:59;27.23;;;10.95;;
48014;SDS011;33780;51.034;7.120;2023-02-23T12:20:46;36.47;;;11.43;;
48014;SDS011;33780;51.034;7.120;2023-02-23T12:23:16;30.98;;;11.40;;
48014;SDS011;33780;51.034;7.120;2023-02-23T12:25:54;25.83;;;10.55;;
48014;SDS011;33780;51.034;7.120;2023-02-23T12:28:30;26.48;;;10.20;;
48014;SDS011;33780;51.034;7.120;2023-02-23T12:31:16;31.20;;;11.10;;
48014;SDS011;33780;51.034;7.120;2023-02-23T12:33:52;32.38;;;11.05;;
48014;SDS011;33780;51.034;7.120;2023-02-23T12:36:25;25.98;;;9.88;;
48014;SDS011;33780;51.034;7.120;2023-02-23T12:39:12;26.95;;;11.25;;
48014;SDS011;33780;51.034;7.120;2023-02-23T12:44:48;26.08;;;10.38;;
48014;SDS011;33780;51.034;7.120;2023-02-23T12:47:23;25.55;;;11.45;;
48014;SDS011;33780;51.034;7.120;2023-02-23T12:49:57;24.63;;;9.75;;
48014;SDS011;33780;51.034;7.120;2023-02-23T12:52:32;26.73;;;10.75;;
48014;SDS011;33780;51.034;7.120;2023-02-23T12:55:01;26.45;;;10.43;;
48014;SDS011;33780;51.034;7.120;2023-02-23T13:00:15;25.65;;;9.65;;
48014;SDS011;33780;51.034;7.120;2023-02-23T13:03:06;26.85;;;10.27;;
48014;SDS011;33780;51.034;7.120;2023-02-23T13:08:38;28.55;;;9.40;;
48014;SDS011;33780;51.034;7.120;2023-02-23T13:11:12;24.70;;;8.88;;
48014;SDS011;33780;51.034;7.120;2023-02-23T13:13:56;20.75;;;8.25;;
48014;SDS011;33780;51.034;7.120;2023-02-23T13:16:40;24.40;;;8.85;;
48014;SDS011;33780;51.034;7.120;2023-02-23T13:19:26;24.05;;;8.68;;
48014;SDS011;33780;51.034;7.120;2023-02-23T13:24:49;23.30;;;8.98;;
48014;SDS011;33780;51.034;7.120;2023-02-23T13:27:19;25.67;;;8.80;;
48014;SDS011;33780;51.034;7.120;2023-02-23T13:29:51;18.58;;;7.68;;
48014;SDS011;33780;51.034;7.120;2023-02-23T13:32:22;17.10;;;6.90;;
48014;SDS011;33780;51.034;7.120;2023-02-23T13:34:55;21.33;;;8.25;;
48014;SDS011;33780;51.034;7.120;2023-02-23T13:56:42;22.92;;;7.22;;
48014;SDS011;33780;51.034;7.120;2023-02-23T13:59:15;20.80;;;7.80;;
48014;SDS011;33780;51.034;7.120;2023-02-23T14:01:44;19.02;;;7.38;;
48014;SDS011;33780;51.034;7.120;2023-02-23T14:04:14;20.20;;;7.60;;
48014;SDS011;33780;51.034;7.120;2023-02-23T14:06:51;21.20;;;8.68;;
48014;SDS011;33780;51.034;7.120;2023-02-23T14:09:28;21.40;;;8.55;;
48014;SDS011;33780;51.034;7.120;2023-02-23T14:20:02;25.50;;;9.48;;
48014;SDS011;33780;51.034;7.120;2023-02-23T14:22:29;22.88;;;9.15;;
48014;SDS011;33780;51.034;7.120;2023-02-23T14:28:01;27.50;;;9.27;;
48014;SDS011;33780;51.034;7.120;2023-02-23T14:30:42;25.08;;;9.40;;
48014;SDS011;33780;51.034;7.120;2023-02-23T14:38:45;24.33;;;9.02;;
48014;SDS011;33780;51.034;7.120;2023-02-23T14:41:19;30.60;;;10.40;;
48014;SDS011;33780;51.034;7.120;2023-02-23T14:43:46;27.13;;;9.68;;
48014;SDS011;33780;51.034;7.120;2023-02-23T14:46:17;26.23;;;9.98;;
48014;SDS011;33780;51.034;7.120;2023-02-23T14:49:21;24.53;;;9.27;;
48014;SDS011;33780;51.034;7.120;2023-02-23T14:52:26;23.27;;;8.60;;
48014;SDS011;33780;51.034;7.120;2023-02-23T14:54:41;21.80;;;8.55;;
48014;SDS011;33780;51.034;7.120;2023-02-23T14:57:20;24.85;;;9.27;;
48014;SDS011;33780;51.034;7.120;2023-02-23T14:59:52;17.90;;;7.38;;
48014;SDS011;33780;51.034;7.120;2023-02-23T15:02:26;24.20;;;7.93;;
48014;SDS011;33780;51.034;7.120;2023-02-23T15:04:54;19.25;;;7.53;;
48014;SDS011;33780;51.034;7.120;2023-02-23T15:07:30;17.25;;;7.50;;
48014;SDS011;33780;51.034;7.120;2023-02-23T15:10:06;19.20;;;7.43;;
48014;SDS011;33780;51.034;7.120;2023-02-23T15:12:36;16.80;;;6.47;;
48014;SDS011;33780;51.034;7.120;2023-02-23T15:15:03;17.98;;;7.20;;
48014;SDS011;33780;51.034;7.120;2023-02-23T15:17:32;19.02;;;7.15;;
48014;SDS011;33780;51.034;7.120;2023-02-23T15:19:59;16.00;;;6.60;;
48014;SDS011;33780;51.034;7.120;2023-02-23T15:22:30;16.30;;;6.63;;
48014;SDS011;33780;51.034;7.120;2023-02-23T15:25:01;17.75;;;6.43;;
48014;SDS011;33780;51.034;7.120;2023-02-23T15:27:37;15.38;;;6.53;;
48014;SDS011;33780;51.034;7.120;2023-02-23T15:33:02;16.80;;;7.22;;
48014;SDS011;33780;51.034;7.120;2023-02-23T15:35:28;16.40;;;6.75;;
48014;SDS011;33780;51.034;7.120;2023-02-23T15:37:58;17.83;;;6.72;;
48014;SDS011;33780;51.034;7.120;2023-02-23T15:40:26;13.43;;;6.25;;
48014;SDS011;33780;51.034;7.120;2023-02-23T15:42:54;15.82;;;6.35;;
48014;SDS011;33780;51.034;7.120;2023-02-23T15:45:33;18.17;;;7.72;;
48014;SDS011;33780;51.034;7.120;2023-02-23T15:48:01;19.40;;;7.03;;
48014;SDS011;33780;51.034;7.120;2023-02-23T15:50:30;16.02;;;6.90;;
48014;SDS011;33780;51.034;7.120;2023-02-23T15:53:05;17.73;;;6.85;;
48014;SDS011;33780;51.034;7.120;2023-02-23T15:55:37;18.33;;;7.32;;
48014;SDS011;33780;51.034;7.120;2023-02-23T16:00:53;16.63;;;6.32;;
48014;SDS011;33780;51.034;7.120;2023-02-23T16:03:25;17.42;;;5.80;;
48014;SDS011;33780;51.034;7.120;2023-02-23T16:05:57;18.08;;;6.68;;
48014;SDS011;33780;51.034;7.120;2023-02-23T16:08:28;16.63;;;6.47;;
48014;SDS011;33780;51.034;7.120;2023-02-23T16:10:59;19.98;;;6.53;;
48014;SDS011;33780;51.034;7.120;2023-02-23T16:13:31;16.98;;;6.93;;
48014;SDS011;33780;51.034;7.120;2023-02-23T16:15:56;16.45;;;6.47;;
48014;SDS011;33780;51.034;7.120;2023-02-23T16:18:33;15.75;;;6.63;;
48014;SDS011;33780;51.034;7.120;2023-02-23T16:21:02;15.27;;;6.07;;
48014;SDS011;33780;51.034;7.120;2023-02-23T16:23:35;15.45;;;5.97;;
48014;SDS011;33780;51.034;7.120;2023-02-23T16:28:36;16.90;;;6.70;;
48014;SDS011;33780;51.034;7.120;2023-02-23T16:31:07;17.85;;;6.47;;
48014;SDS011;33780;51.034;7.120;2023-02-23T16:33:45;15.43;;;6.55;;
48014;SDS011;33780;51.034;7.120;2023-02-23T16:36:18;16.67;;;6.30;;
48014;SDS011;33780;51.034;7.120;2023-02-23T16:38:54;21.65;;;7.50;;
48014;SDS011;33780;51.034;7.120;2023-02-23T16:41:21;19.05;;;7.20;;
48014;SDS011;33780;51.034;7.120;2023-02-23T16:43:48;17.85;;;6.63;;
48014;SDS011;33780;51.034;7.120;2023-02-23T16:46:15;18.33;;;7.13;;
48014;SDS011;33780;51.034;7.120;2023-02-23T16:48:41;22.10;;;7.47;;
48014;SDS011;33780;51.034;7.120;2023-02-23T16:51:14;23.13;;;7.32;;
48014;SDS011;33780;51.034;7.120;2023-02-23T16:56:53;18.92;;;7.35;;
48014;SDS011;33780;51.034;7.120;2023-02-23T16:59:59;19.20;;;6.85;;
48014;SDS011;33780;51.034;7.120;2023-02-23T17:02:51;25.83;;;8.45;;
48014;SDS011;33780;51.034;7.120;2023-02-23T17:05:23;19.52;;;8.57;;
48014;SDS011;33780;51.034;7.120;2023-02-23T17:07:49;23.52;;;8.00;;
48014;SDS011;33780;51.034;7.120;2023-02-23T17:10:17;19.38;;;7.57;;
48014;SDS011;33780;51.034;7.120;2023-02-23T17:12:51;25.50;;;7.80;;
48014;SDS011;33780;51.034;7.120;2023-02-23T17:15:21;22.63;;;7.88;;
48014;SDS011;33780;51.034;7.120;2023-02-23T17:17:48;20.92;;;7.03;;
48014;SDS011;33780;51.034;7.120;2023-02-23T17:20:17;21.25;;;7.05;;
48014;SDS011;33780;51.034;7.120;2023-02-23T17:22:45;19.42;;;7.90;;
48014;SDS011;33780;51.034;7.120;2023-02-23T17:25:11;24.73;;;8.13;;
48014;SDS011;33780;51.034;7.120;2023-02-23T17:27:37;21.88;;;7.18;;
48014;SDS011;33780;51.034;7.120;2023-02-23T17:30:03;19.60;;;7.35;;
48014;SDS011;33780;51.034;7.120;2023-02-23T17:32:29;22.98;;;8.38;;
48014;SDS011;33780;51.034;7.120;2023-02-23T17:34:55;21.75;;;7.25;;
48014;SDS011;33780;51.034;7.120;2023-02-23T17:37:21;19.48;;;6.57;;
48014;SDS011;33780;51.034;7.120;2023-02-23T17:39:46;21.55;;;7.95;;